createdAt,value
2023-06-30T00:00:11.842Z,2.95
2023-06-30T00:02:38.325Z,2.95
2023-06-30T00:05:04.884Z,2.78
2023-06-30T00:07:31.473Z,2.88
2023-06-30T00:09:57.929Z,2.85
2023-06-30T00:12:24.382Z,2.78
2023-06-30T00:14:50.792Z,2.78
2023-06-30T00:17:17.470Z,3.15
2023-06-30T00:19:43.892Z,2.88
2023-06-30T00:22:10.332Z,2.80
2023-06-30T00:24:36.762Z,3.10
2023-06-30T00:27:03.184Z,2.70
2023-06-30T00:29:29.649Z,3.00
2023-06-30T00:31:56.906Z,2.97
2023-06-30T00:34:23.403Z,2.88
2023-06-30T00:36:49.850Z,2.80
2023-06-30T00:39:16.285Z,2.75
2023-06-30T00:41:42.721Z,2.80
2023-06-30T00:44:09.115Z,2.58
2023-06-30T00:46:35.601Z,2.88
2023-06-30T00:49:02.085Z,2.95
2023-06-30T00:51:28.500Z,2.53
2023-06-30T00:53:55.975Z,2.67
2023-06-30T00:56:22.394Z,2.72
2023-06-30T00:58:48.782Z,2.97
2023-06-30T01:01:15.224Z,2.72
2023-06-30T01:03:41.714Z,2.90
2023-06-30T01:06:08.205Z,2.90
2023-06-30T01:08:34.641Z,2.65
2023-06-30T01:11:02.139Z,2.70
2023-06-30T01:13:28.547Z,2.80
2023-06-30T01:15:54.991Z,3.00
2023-06-30T01:18:21.430Z,3.10
2023-06-30T01:20:47.824Z,2.83
2023-06-30T01:23:14.309Z,2.75
2023-06-30T01:25:40.786Z,2.78
2023-06-30T01:28:07.589Z,2.72
2023-06-30T01:30:36.108Z,2.58
2023-06-30T01:33:02.648Z,2.70
2023-06-30T01:35:29.205Z,2.55
2023-06-30T01:37:55.671Z,2.40
2023-06-30T01:40:22.098Z,2.60
2023-06-30T01:42:48.516Z,2.60
2023-06-30T01:45:14.946Z,2.47
2023-06-30T01:47:41.375Z,2.80
2023-06-30T01:50:07.914Z,2.53
2023-06-30T01:52:34.388Z,2.00
2023-06-30T01:55:00.844Z,2.25
2023-06-30T01:57:27.259Z,2.22
2023-06-30T01:59:53.691Z,2.40
2023-06-30T02:02:20.849Z,2.80
2023-06-30T02:04:47.264Z,2.67
2023-06-30T02:07:15.610Z,2.40
2023-06-30T02:09:47.923Z,2.47
2023-06-30T02:12:15.305Z,2.65
2023-06-30T02:14:41.736Z,2.30
2023-06-30T02:17:08.141Z,2.20
2023-06-30T02:19:34.546Z,2.25
2023-06-30T02:22:00.965Z,2.20
2023-06-30T02:24:27.352Z,2.20
2023-06-30T02:26:54.112Z,2.10
2023-06-30T02:29:20.540Z,2.40
2023-06-30T02:31:47.086Z,2.20
2023-06-30T02:34:13.733Z,2.15
2023-06-30T02:36:40.160Z,2.33
2023-06-30T02:39:06.544Z,2.25
2023-06-30T02:41:32.979Z,2.25
2023-06-30T02:44:00.283Z,2.17
2023-06-30T02:46:26.786Z,2.13
2023-06-30T02:48:53.384Z,2.35
2023-06-30T02:51:19.793Z,2.00
2023-06-30T02:53:46.257Z,2.10
2023-06-30T02:56:12.705Z,2.10
2023-06-30T02:58:39.313Z,2.05
2023-06-30T03:01:05.887Z,2.28
2023-06-30T03:03:35.675Z,2.35
2023-06-30T03:06:02.778Z,2.00
2023-06-30T03:08:32.083Z,2.22
2023-06-30T03:10:58.549Z,2.22
2023-06-30T03:13:25.043Z,3.60
2023-06-30T03:15:51.530Z,3.90
2023-06-30T03:18:17.946Z,3.05
2023-06-30T03:20:44.427Z,2.70
2023-06-30T03:23:10.880Z,2.90
2023-06-30T03:25:37.316Z,2.80
2023-06-30T03:28:03.716Z,3.30
2023-06-30T03:30:30.278Z,3.03
2023-06-30T03:32:56.752Z,2.78
2023-06-30T03:35:23.209Z,2.72
2023-06-30T03:37:49.668Z,2.17
2023-06-30T03:40:16.169Z,2.40
2023-06-30T03:42:42.865Z,2.55
2023-06-30T03:45:09.314Z,2.30
2023-06-30T03:47:35.870Z,2.40
2023-06-30T03:50:02.551Z,2.60
2023-06-30T03:52:29.045Z,2.45
2023-06-30T03:54:56.163Z,2.40
2023-06-30T03:57:22.710Z,2.33
2023-06-30T03:59:49.262Z,4.88
2023-06-30T04:02:16.014Z,4.20
2023-06-30T04:04:42.592Z,2.80
2023-06-30T04:07:09.266Z,2.80
2023-06-30T04:09:35.758Z,2.85
2023-06-30T04:12:02.234Z,3.10
2023-06-30T04:14:28.675Z,3.20
2023-06-30T04:16:56.867Z,3.00
2023-06-30T04:19:24.331Z,2.80
2023-06-30T04:21:50.880Z,3.10
2023-06-30T04:24:17.411Z,2.72
2023-06-30T04:26:43.915Z,2.70
2023-06-30T04:29:10.363Z,2.60
2023-06-30T04:31:37.039Z,2.63
2023-06-30T04:34:03.583Z,2.50
2023-06-30T04:36:30.067Z,2.70
2023-06-30T04:38:56.530Z,2.55
2023-06-30T04:41:23.047Z,2.95
2023-06-30T04:43:49.494Z,2.50
2023-06-30T04:46:15.979Z,2.50
2023-06-30T04:48:42.494Z,2.60
2023-06-30T04:51:08.955Z,2.40
2023-06-30T04:53:35.415Z,2.72
2023-06-30T04:56:02.401Z,202.90
2023-06-30T04:58:29.014Z,140.75
2023-06-30T05:00:55.684Z,72.85
2023-06-30T05:03:22.358Z,24.15
2023-06-30T05:05:48.847Z,59.17
2023-06-30T05:08:15.342Z,70.72
2023-06-30T05:10:41.801Z,66.93
2023-06-30T05:13:08.228Z,47.90
2023-06-30T05:15:34.726Z,45.30
2023-06-30T05:18:01.254Z,34.25
2023-06-30T05:20:27.740Z,35.60
2023-06-30T05:22:54.216Z,35.00
2023-06-30T05:25:20.653Z,35.38
2023-06-30T05:27:47.104Z,31.73
2023-06-30T05:30:13.645Z,30.65
2023-06-30T05:32:40.115Z,30.55
2023-06-30T05:35:06.558Z,28.73
2023-06-30T05:37:33.047Z,29.42
2023-06-30T05:39:59.491Z,26.38
2023-06-30T05:42:25.963Z,25.85
2023-06-30T05:44:52.419Z,209.65
2023-06-30T05:47:18.862Z,59.65
2023-06-30T05:49:45.364Z,33.28
2023-06-30T05:52:11.825Z,23.80
2023-06-30T05:54:38.285Z,27.98
2023-06-30T05:57:04.823Z,28.80
2023-06-30T05:59:31.508Z,29.48
2023-06-30T06:01:57.934Z,24.42
2023-06-30T06:04:24.562Z,22.83
2023-06-30T06:06:51.143Z,21.70
2023-06-30T06:09:17.648Z,21.42
2023-06-30T06:11:44.108Z,19.55
2023-06-30T06:14:10.524Z,18.73
2023-06-30T06:16:37.023Z,18.38
2023-06-30T06:19:03.506Z,18.40
2023-06-30T06:21:29.951Z,17.80
2023-06-30T06:23:56.468Z,16.88
2023-06-30T06:26:22.913Z,13.40
2023-06-30T06:28:49.365Z,12.85
2023-06-30T06:31:15.957Z,8.98
2023-06-30T06:33:42.472Z,6.47
2023-06-30T06:36:08.979Z,5.40
2023-06-30T06:38:35.513Z,6.03
2023-06-30T06:41:01.989Z,6.97
2023-06-30T06:43:28.447Z,300.50
2023-06-30T06:45:54.922Z,250.43
2023-06-30T06:48:21.433Z,176.07
2023-06-30T06:50:47.904Z,170.20
2023-06-30T06:53:14.351Z,123.85
2023-06-30T06:55:40.840Z,101.30
2023-06-30T06:58:07.339Z,99.40
2023-06-30T07:00:33.818Z,70.50
2023-06-30T07:03:00.365Z,63.20
2023-06-30T07:05:26.971Z,51.38
2023-06-30T07:07:53.464Z,38.05
2023-06-30T07:10:19.914Z,38.25
2023-06-30T07:12:46.422Z,30.27
2023-06-30T07:15:12.989Z,21.63
2023-06-30T07:17:39.472Z,19.17
2023-06-30T07:20:06.013Z,40.38
2023-06-30T07:22:32.498Z,31.88
2023-06-30T07:24:58.925Z,29.15
2023-06-30T07:27:25.431Z,22.52
2023-06-30T07:29:51.925Z,18.85
2023-06-30T07:32:18.369Z,17.50
2023-06-30T07:34:44.880Z,13.30
2023-06-30T07:37:11.400Z,10.15
2023-06-30T07:39:37.816Z,9.00
2023-06-30T07:42:04.359Z,8.35
2023-06-30T07:44:32.115Z,8.30
2023-06-30T07:46:59.037Z,6.03
2023-06-30T07:49:26.797Z,4.97
2023-06-30T07:51:53.244Z,3.90
2023-06-30T07:54:19.740Z,3.58
2023-06-30T07:56:46.173Z,3.00
2023-06-30T07:59:12.644Z,2.80
2023-06-30T08:01:39.086Z,52.63
2023-06-30T08:04:05.884Z,121.07
2023-06-30T08:06:32.528Z,166.50
2023-06-30T08:08:58.959Z,89.50
2023-06-30T08:11:25.426Z,58.97
2023-06-30T08:13:51.943Z,52.35
2023-06-30T08:16:18.448Z,48.13
2023-06-30T08:18:52.135Z,40.97
2023-06-30T08:23:46.063Z,29.52
2023-06-30T08:26:12.563Z,21.38
2023-06-30T08:28:39.034Z,17.38
2023-06-30T08:31:05.533Z,11.20
2023-06-30T08:36:01.399Z,9.93
2023-06-30T08:38:27.880Z,8.05
2023-06-30T08:40:54.372Z,6.45
2023-06-30T08:43:20.823Z,5.68
2023-06-30T08:45:47.450Z,4.82
2023-06-30T08:48:14.189Z,4.60
2023-06-30T08:50:40.652Z,3.95
2023-06-30T08:53:07.141Z,3.13
2023-06-30T08:55:33.625Z,3.25
2023-06-30T08:58:02.319Z,2.90
2023-06-30T09:00:31.064Z,2.70
2023-06-30T09:02:57.664Z,2.78
2023-06-30T09:05:24.222Z,2.30
2023-06-30T09:07:50.793Z,1.95
2023-06-30T09:10:17.341Z,2.10
2023-06-30T09:12:43.831Z,4.57
2023-06-30T09:15:10.283Z,3.58
2023-06-30T09:17:36.785Z,3.75
2023-06-30T09:20:03.275Z,4.28
2023-06-30T09:22:53.947Z,2.90
2023-06-30T09:25:16.272Z,3.00
2023-06-30T09:27:42.788Z,2.90
2023-06-30T09:30:09.236Z,3.42
2023-06-30T09:32:35.795Z,4.90
2023-06-30T09:35:02.254Z,3.50
2023-06-30T09:37:29.128Z,2.90
2023-06-30T09:39:55.668Z,3.20
2023-06-30T09:42:22.166Z,2.50
2023-06-30T09:44:48.729Z,9.27
2023-06-30T09:47:15.219Z,77.13
2023-06-30T09:49:41.740Z,42.67
2023-06-30T09:52:08.287Z,30.67
2023-06-30T09:54:44.303Z,22.45
2023-06-30T09:57:11.235Z,16.98
2023-06-30T09:59:37.703Z,13.13
2023-06-30T10:02:04.250Z,9.93
2023-06-30T10:04:30.811Z,8.07
2023-06-30T10:06:57.333Z,6.68
2023-06-30T10:09:23.852Z,5.85
2023-06-30T10:11:50.354Z,38.50
2023-06-30T10:14:16.779Z,229.23
2023-06-30T10:16:43.280Z,184.25
2023-06-30T10:19:09.721Z,108.05
2023-06-30T10:21:36.249Z,72.65
2023-06-30T10:24:02.771Z,46.05
2023-06-30T10:26:29.234Z,28.70
2023-06-30T10:28:55.687Z,25.77
2023-06-30T10:31:22.168Z,19.95
2023-06-30T10:33:48.703Z,15.10
2023-06-30T10:36:15.178Z,11.52
2023-06-30T10:38:41.603Z,9.52
2023-06-30T10:41:08.071Z,7.45
2023-06-30T10:43:35.779Z,6.22
2023-06-30T10:46:02.214Z,4.80
2023-06-30T10:48:28.664Z,5.00
2023-06-30T10:50:55.107Z,4.13
2023-06-30T10:53:21.592Z,229.10
2023-06-30T10:55:48.442Z,389.52
2023-06-30T10:58:15.087Z,183.32
2023-06-30T11:00:41.527Z,130.13
2023-06-30T11:03:08.116Z,101.25
2023-06-30T11:05:34.660Z,60.47
2023-06-30T11:08:01.172Z,41.85
2023-06-30T11:10:27.595Z,26.23
2023-06-30T11:12:54.042Z,19.13
2023-06-30T11:15:20.483Z,13.77
2023-06-30T11:17:46.969Z,10.15
2023-06-30T11:20:13.569Z,6.68
2023-06-30T11:22:40.109Z,9.25
2023-06-30T11:25:06.574Z,6.97
2023-06-30T11:27:33.085Z,5.40
2023-06-30T11:29:59.541Z,4.45
2023-06-30T11:32:26.038Z,3.50
2023-06-30T11:34:52.500Z,3.40
2023-06-30T11:37:18.920Z,159.43
2023-06-30T11:39:45.348Z,269.80
2023-06-30T11:42:11.820Z,132.02
2023-06-30T11:44:38.277Z,89.15
2023-06-30T11:47:04.984Z,57.88
2023-06-30T11:49:31.740Z,42.75
2023-06-30T11:51:59.251Z,33.80
2023-06-30T11:54:26.200Z,19.48
2023-06-30T11:56:52.932Z,13.68
2023-06-30T11:59:19.393Z,9.82
2023-06-30T12:01:45.897Z,7.57
2023-06-30T12:04:12.589Z,5.47
2023-06-30T12:06:39.127Z,4.38
2023-06-30T12:09:05.591Z,3.97
2023-06-30T12:11:32.056Z,4.53
2023-06-30T12:13:58.558Z,4.18
2023-06-30T12:16:25.064Z,4.20
2023-06-30T12:18:51.581Z,4.45
2023-06-30T12:21:18.046Z,3.50
2023-06-30T12:23:44.632Z,3.33
2023-06-30T12:26:11.238Z,379.70
2023-06-30T12:28:37.728Z,393.75
2023-06-30T12:31:04.242Z,200.38
2023-06-30T12:33:30.702Z,100.15
2023-06-30T12:35:57.425Z,86.03
2023-06-30T12:38:23.895Z,61.33
2023-06-30T12:40:50.348Z,40.10
2023-06-30T12:43:16.850Z,24.73
2023-06-30T12:45:43.308Z,19.30
2023-06-30T12:48:09.792Z,14.80
2023-06-30T12:50:36.373Z,10.63
2023-06-30T12:53:02.815Z,7.60
2023-06-30T12:55:29.310Z,6.45
2023-06-30T12:57:55.845Z,4.95
2023-06-30T13:00:22.350Z,4.72
2023-06-30T13:02:48.949Z,10.88
2023-06-30T13:05:15.810Z,5.50
2023-06-30T13:07:42.374Z,3.40
2023-06-30T13:10:08.939Z,3.97
2023-06-30T13:12:35.383Z,2.80
2023-06-30T13:15:01.993Z,2.50
2023-06-30T13:17:28.456Z,3.05
2023-06-30T13:19:54.848Z,2.92
2023-06-30T13:22:21.259Z,2.72
2023-06-30T13:24:47.653Z,2.45
2023-06-30T13:27:14.046Z,2.40
2023-06-30T13:29:40.452Z,2.70
2023-06-30T13:32:06.841Z,6.18
2023-06-30T13:34:33.266Z,4.03
2023-06-30T13:36:59.658Z,3.70
2023-06-30T13:39:26.075Z,3.60
2023-06-30T13:41:52.544Z,3.10
2023-06-30T13:44:18.939Z,3.40
2023-06-30T13:46:45.323Z,3.50
2023-06-30T13:49:11.746Z,3.10
2023-06-30T13:51:38.151Z,3.00
2023-06-30T13:54:04.546Z,3.05
2023-06-30T13:56:31.176Z,2.95
2023-06-30T13:58:57.640Z,2.97
2023-06-30T14:01:24.177Z,2.83
2023-06-30T14:03:50.698Z,2.78
2023-06-30T14:06:17.229Z,3.20
2023-06-30T14:08:43.653Z,2.97
2023-06-30T14:11:10.077Z,2.90
2023-06-30T14:13:36.483Z,2.65
2023-06-30T14:16:02.916Z,2.70
2023-06-30T14:18:29.296Z,2.83
2023-06-30T14:20:55.711Z,2.70
2023-06-30T14:23:22.100Z,2.67
2023-06-30T14:25:48.783Z,2.72
2023-06-30T14:28:15.490Z,2.22
2023-06-30T14:30:41.878Z,2.55
2023-06-30T14:33:08.313Z,2.72
2023-06-30T14:35:34.848Z,2.90
2023-06-30T14:38:01.210Z,2.40
2023-06-30T14:40:27.622Z,2.65
2023-06-30T14:42:54.093Z,2.30
2023-06-30T14:45:20.494Z,2.30
2023-06-30T14:47:46.939Z,2.10
2023-06-30T14:50:13.350Z,2.25
2023-06-30T14:52:39.735Z,2.20
2023-06-30T14:55:06.137Z,2.50
2023-06-30T14:57:32.522Z,1.98
2023-06-30T14:59:58.900Z,2.70
2023-06-30T15:02:25.406Z,2.35
2023-06-30T15:04:51.927Z,2.50
2023-06-30T15:07:18.362Z,2.65
2023-06-30T15:09:44.753Z,2.33
2023-06-30T15:12:11.190Z,2.53
2023-06-30T15:14:37.556Z,2.28
2023-06-30T15:17:03.968Z,2.20
2023-06-30T15:19:30.412Z,3.00
2023-06-30T15:21:56.771Z,2.80
2023-06-30T15:24:23.195Z,2.40
2023-06-30T15:26:49.566Z,2.30
2023-06-30T15:29:15.925Z,2.08
2023-06-30T15:31:42.362Z,2.15
2023-06-30T15:34:08.819Z,1.90
2023-06-30T15:36:35.224Z,2.30
2023-06-30T15:39:01.636Z,2.25
2023-06-30T15:41:28.026Z,3.00
2023-06-30T15:43:54.430Z,4.40
2023-06-30T15:46:20.837Z,3.08
2023-06-30T15:48:47.249Z,3.80
2023-06-30T15:51:13.651Z,3.15
2023-06-30T15:53:40.061Z,3.05
2023-06-30T15:56:06.493Z,2.70
2023-06-30T15:58:32.924Z,2.60
2023-06-30T16:00:59.386Z,2.63
2023-06-30T16:03:25.989Z,2.30
2023-06-30T16:05:52.580Z,2.38
2023-06-30T16:08:19.101Z,2.35
2023-06-30T16:10:45.460Z,2.33
2023-06-30T16:13:13.379Z,2.47
2023-06-30T16:15:40.344Z,2.35
2023-06-30T16:18:06.776Z,2.40
2023-06-30T16:20:33.298Z,2.78
2023-06-30T16:22:59.703Z,1.83
2023-06-30T16:25:26.096Z,2.10
2023-06-30T16:27:52.521Z,2.58
2023-06-30T16:30:18.914Z,2.25
2023-06-30T16:32:45.315Z,1.83
2023-06-30T16:35:11.740Z,1.98
2023-06-30T16:37:38.129Z,2.10
2023-06-30T16:40:04.536Z,2.00
2023-06-30T16:42:30.934Z,2.45
2023-06-30T16:44:57.300Z,2.25
2023-06-30T16:47:23.733Z,2.40
2023-06-30T16:49:50.124Z,2.17
2023-06-30T16:52:16.490Z,2.20
2023-06-30T16:54:42.902Z,1.95
2023-06-30T16:57:09.270Z,1.90
2023-06-30T16:59:35.655Z,1.80
2023-06-30T17:02:02.079Z,2.08
2023-06-30T17:04:28.506Z,1.85
2023-06-30T17:06:55.012Z,2.08
2023-06-30T17:09:21.401Z,1.65
2023-06-30T17:11:47.776Z,1.98
2023-06-30T17:14:14.188Z,1.98
2023-06-30T17:16:40.606Z,1.95
2023-06-30T17:19:06.993Z,1.77
2023-06-30T17:21:33.404Z,1.70
2023-06-30T17:23:59.792Z,1.80
2023-06-30T17:26:26.158Z,1.92
2023-06-30T17:28:52.568Z,1.63
2023-06-30T17:31:19.018Z,1.70
2023-06-30T17:33:45.423Z,1.60
2023-06-30T17:36:11.820Z,1.73
2023-06-30T17:38:38.209Z,1.73
2023-06-30T17:41:04.627Z,1.83
2023-06-30T17:43:31.057Z,1.70
2023-06-30T17:45:57.477Z,1.80
2023-06-30T17:48:23.918Z,1.60
2023-06-30T17:50:50.311Z,1.55
2023-06-30T17:53:16.811Z,1.75
2023-06-30T17:55:43.250Z,1.60
2023-06-30T17:58:09.634Z,1.38
2023-06-30T18:00:36.330Z,1.42
2023-06-30T18:03:02.821Z,1.52
2023-06-30T18:05:29.290Z,1.50
2023-06-30T18:07:55.781Z,1.70
2023-06-30T18:10:22.245Z,1.52
2023-06-30T18:12:48.647Z,1.52
2023-06-30T18:15:15.076Z,1.50
2023-06-30T18:17:41.543Z,1.63
2023-06-30T18:20:08.018Z,1.50
2023-06-30T18:22:34.424Z,1.50
2023-06-30T18:25:00.821Z,1.65
2023-06-30T18:27:27.236Z,1.63
2023-06-30T18:29:53.655Z,1.50
2023-06-30T18:32:20.167Z,1.40
2023-06-30T18:34:46.578Z,1.70
2023-06-30T18:37:12.998Z,1.60
2023-06-30T18:39:39.420Z,1.67
2023-06-30T18:42:05.841Z,1.67
2023-06-30T18:44:32.270Z,1.58
2023-06-30T18:46:58.880Z,1.70
2023-06-30T18:49:25.524Z,1.90
2023-06-30T18:51:51.938Z,1.75
2023-06-30T18:54:18.346Z,1.80
2023-06-30T18:56:44.792Z,1.80
2023-06-30T18:59:11.212Z,1.80
2023-06-30T19:01:37.906Z,1.65
2023-06-30T19:04:04.657Z,1.77
2023-06-30T19:06:31.235Z,1.90
2023-06-30T19:08:57.661Z,1.90
2023-06-30T19:11:24.070Z,1.98
2023-06-30T19:13:50.542Z,1.90
2023-06-30T19:16:17.011Z,1.67
2023-06-30T19:18:43.454Z,1.80
2023-06-30T19:21:09.978Z,1.65
2023-06-30T19:23:36.405Z,1.80
2023-06-30T19:26:02.851Z,1.70
2023-06-30T19:28:29.297Z,1.73
2023-06-30T19:30:55.682Z,2.10
2023-06-30T19:33:22.094Z,1.90
2023-06-30T19:35:48.713Z,1.73
2023-06-30T19:38:15.257Z,1.60
2023-06-30T19:40:41.678Z,1.70
2023-06-30T19:43:08.115Z,1.65
2023-06-30T19:45:34.535Z,1.52
2023-06-30T19:48:00.969Z,1.70
2023-06-30T19:50:27.484Z,1.85
2023-06-30T19:52:53.894Z,1.50
2023-06-30T19:55:20.304Z,1.90
2023-06-30T19:57:46.733Z,1.83
2023-06-30T20:00:13.144Z,1.90
2023-06-30T20:02:39.761Z,1.80
2023-06-30T20:05:06.416Z,1.80
2023-06-30T20:07:32.822Z,2.00
2023-06-30T20:09:59.245Z,2.15
2023-06-30T20:12:25.654Z,2.05
2023-06-30T20:14:52.082Z,1.88
2023-06-30T20:17:18.522Z,2.35
2023-06-30T20:19:44.927Z,1.95
2023-06-30T20:22:11.361Z,2.05
2023-06-30T20:24:37.893Z,2.40
2023-06-30T20:27:04.366Z,2.78
2023-06-30T20:29:30.865Z,2.13
2023-06-30T20:31:57.363Z,2.67
2023-06-30T20:34:23.759Z,2.30
2023-06-30T20:36:50.196Z,2.50
2023-06-30T20:39:16.619Z,2.33
2023-06-30T20:41:43.020Z,2.20
2023-06-30T20:44:09.436Z,2.70
2023-06-30T20:46:35.878Z,2.40
2023-06-30T20:49:02.304Z,2.08
2023-06-30T20:51:28.805Z,2.30
2023-06-30T20:53:55.283Z,2.53
2023-06-30T20:56:21.704Z,2.22
2023-06-30T20:58:48.124Z,2.30
2023-06-30T21:01:14.512Z,2.22
2023-06-30T21:03:41.063Z,2.10
2023-06-30T21:06:07.503Z,2.40
2023-06-30T21:08:33.915Z,2.28
2023-06-30T21:11:00.346Z,2.08
2023-06-30T21:13:26.739Z,2.47
2023-06-30T21:15:53.186Z,2.22
2023-06-30T21:18:19.625Z,2.70
2023-06-30T21:20:46.460Z,2.33
2023-06-30T21:23:13.154Z,2.20
2023-06-30T21:25:39.574Z,2.40
2023-06-30T21:28:06.729Z,2.22
2023-06-30T21:30:33.147Z,2.35
2023-06-30T21:33:00.006Z,2.38
2023-06-30T21:35:27.330Z,2.50
2023-06-30T21:37:53.760Z,2.40
2023-06-30T21:40:20.172Z,2.17
2023-06-30T21:42:46.568Z,2.10
2023-06-30T21:45:12.998Z,2.05
2023-06-30T21:47:39.547Z,2.20
2023-06-30T21:50:06.019Z,2.00
2023-06-30T21:52:32.440Z,2.20
2023-06-30T21:54:58.948Z,2.20
2023-06-30T21:57:25.362Z,2.38
2023-06-30T21:59:51.770Z,2.38
2023-06-30T22:02:18.395Z,2.13
2023-06-30T22:04:44.896Z,2.50
2023-06-30T22:07:11.329Z,2.22
2023-06-30T22:09:37.779Z,2.45
2023-06-30T22:12:04.211Z,2.10
2023-06-30T22:14:30.627Z,2.20
2023-06-30T22:16:57.069Z,2.13
2023-06-30T22:19:23.506Z,2.10
2023-06-30T22:21:49.913Z,2.15
2023-06-30T22:24:16.331Z,2.50
2023-06-30T22:26:42.754Z,2.05
2023-06-30T22:29:09.160Z,2.20
2023-06-30T22:31:35.632Z,2.30
2023-06-30T22:34:02.087Z,2.30
2023-06-30T22:36:28.500Z,2.00
2023-06-30T22:38:54.898Z,2.15
2023-06-30T22:41:21.325Z,2.17
2023-06-30T22:43:47.769Z,2.10
2023-06-30T22:46:14.197Z,2.10
2023-06-30T22:48:40.616Z,2.00
2023-06-30T22:51:07.055Z,2.00
2023-06-30T22:53:33.464Z,1.98
2023-06-30T22:55:59.892Z,2.20
2023-06-30T22:58:26.426Z,2.00
2023-06-30T23:00:52.812Z,2.13
2023-06-30T23:03:19.308Z,2.00
2023-06-30T23:05:45.797Z,2.00
2023-06-30T23:08:12.196Z,2.00
2023-06-30T23:10:38.638Z,1.80
2023-06-30T23:13:05.041Z,2.08
2023-06-30T23:15:31.450Z,2.00
2023-06-30T23:17:57.956Z,2.15
2023-06-30T23:20:24.387Z,2.00
2023-06-30T23:22:50.807Z,1.95
2023-06-30T23:25:17.232Z,2.08
2023-06-30T23:27:43.648Z,1.83
2023-06-30T23:30:10.051Z,1.90
2023-06-30T23:32:36.484Z,2.05
2023-06-30T23:35:02.972Z,1.95
2023-06-30T23:37:29.376Z,2.20
2023-06-30T23:39:55.819Z,2.00
2023-06-30T23:42:22.246Z,2.10
2023-06-30T23:44:48.637Z,2.05
2023-06-30T23:47:15.087Z,2.00
2023-06-30T23:49:41.533Z,2.20
2023-06-30T23:52:07.928Z,1.88
2023-06-30T23:54:34.368Z,2.00
2023-06-30T23:57:00.767Z,2.00
2023-06-30T23:59:27.153Z,2.03
